sensor_id;sensor_type;location;lat;lon;timestamp;P1;durP1;ratioP1;P2;durP2;ratioP2
6638;SDS011;3355;52.882;8.430;2024-02-26T00:00:07;4.38;;;3.60;;
6638;SDS011;3355;52.882;8.430;2024-02-26T00:02:41;4.90;;;4.40;;
6638;SDS011;3355;52.882;8.430;2024-02-26T00:05:08;5.30;;;4.37;;
6638;SDS011;3355;52.882;8.430;2024-02-26T00:07:37;8.27;;;4.77;;
6638;SDS011;3355;52.882;8.430;2024-02-26T00:10:30;4.67;;;4.27;;
6638;SDS011;3355;52.882;8.430;2024-02-26T00:13:51;5.13;;;4.40;;
6638;SDS011;3355;52.882;8.430;2024-02-26T00:27:01;5.60;;;4.33;;
6638;SDS011;3355;52.882;8.430;2024-02-26T00:29:42;5.27;;;4.27;;
6638;SDS011;3355;52.882;8.430;2024-02-26T00:32:15;5.63;;;3.90;;
6638;SDS011;3355;52.882;8.430;2024-02-26T00:34:53;5.00;;;3.87;;
6638;SDS011;3355;52.882;8.430;2024-02-26T00:37:34;4.33;;;3.47;;
6638;SDS011;3355;52.882;8.430;2024-02-26T00:40:31;7.40;;;3.53;;
6638;SDS011;3355;52.882;8.430;2024-02-26T00:43:26;4.70;;;3.93;;
6638;SDS011;3355;52.882;8.430;2024-02-26T00:45:59;4.60;;;3.63;;
6638;SDS011;3355;52.882;8.430;2024-02-26T00:49:00;4.82;;;3.40;;
6638;SDS011;3355;52.882;8.430;2024-02-26T00:51:35;4.80;;;3.73;;
6638;SDS011;3355;52.882;8.430;2024-02-26T00:54:12;5.73;;;4.07;;
6638;SDS011;3355;52.882;8.430;2024-02-26T01:10:10;5.30;;;2.90;;
6638;SDS011;3355;52.882;8.430;2024-02-26T01:12:51;3.27;;;2.97;;
6638;SDS011;3355;52.882;8.430;2024-02-26T01:15:34;4.03;;;3.50;;
6638;SDS011;3355;52.882;8.430;2024-02-26T01:18:19;3.77;;;3.10;;
6638;SDS011;3355;52.882;8.430;2024-02-26T01:21:02;4.50;;;3.45;;
6638;SDS011;3355;52.882;8.430;2024-02-26T01:23:34;4.70;;;3.47;;
6638;SDS011;3355;52.882;8.430;2024-02-26T01:26:08;4.23;;;3.60;;
6638;SDS011;3355;52.882;8.430;2024-02-26T01:28:48;4.07;;;3.67;;
6638;SDS011;3355;52.882;8.430;2024-02-26T01:31:20;4.00;;;3.50;;
6638;SDS011;3355;52.882;8.430;2024-02-26T01:33:54;5.40;;;4.63;;
6638;SDS011;3355;52.882;8.430;2024-02-26T01:36:21;6.17;;;4.23;;
6638;SDS011;3355;52.882;8.430;2024-02-26T01:38:48;5.83;;;4.50;;
6638;SDS011;3355;52.882;8.430;2024-02-26T01:41:37;5.80;;;5.20;;
6638;SDS011;3355;52.882;8.430;2024-02-26T01:44:07;5.97;;;4.63;;
6638;SDS011;3355;52.882;8.430;2024-02-26T01:46:44;7.40;;;5.50;;
6638;SDS011;3355;52.882;8.430;2024-02-26T01:49:15;6.20;;;5.43;;
6638;SDS011;3355;52.882;8.430;2024-02-26T01:51:44;6.43;;;5.80;;
6638;SDS011;3355;52.882;8.430;2024-02-26T01:54:12;8.40;;;6.70;;
6638;SDS011;3355;52.882;8.430;2024-02-26T01:56:43;9.57;;;6.07;;
6638;SDS011;3355;52.882;8.430;2024-02-26T01:59:10;7.75;;;6.95;;
6638;SDS011;3355;52.882;8.430;2024-02-26T02:01:38;9.03;;;7.00;;
6638;SDS011;3355;52.882;8.430;2024-02-26T02:04:06;7.10;;;6.40;;
6638;SDS011;3355;52.882;8.430;2024-02-26T02:06:35;8.70;;;7.67;;
6638;SDS011;3355;52.882;8.430;2024-02-26T02:09:05;7.90;;;7.10;;
6638;SDS011;3355;52.882;8.430;2024-02-26T02:11:35;9.10;;;7.20;;
6638;SDS011;3355;52.882;8.430;2024-02-26T02:14:07;7.70;;;6.90;;
6638;SDS011;3355;52.882;8.430;2024-02-26T02:16:35;9.03;;;8.10;;
6638;SDS011;3355;52.882;8.430;2024-02-26T02:19:04;9.50;;;6.60;;
6638;SDS011;3355;52.882;8.430;2024-02-26T02:21:35;8.37;;;7.13;;
6638;SDS011;3355;52.882;8.430;2024-02-26T02:24:05;7.00;;;6.30;;
6638;SDS011;3355;52.882;8.430;2024-02-26T02:26:34;8.70;;;7.87;;
6638;SDS011;3355;52.882;8.430;2024-02-26T02:29:03;8.00;;;7.00;;
6638;SDS011;3355;52.882;8.430;2024-02-26T02:31:31;8.43;;;7.32;;
6638;SDS011;3355;52.882;8.430;2024-02-26T02:33:59;9.07;;;7.80;;
6638;SDS011;3355;52.882;8.430;2024-02-26T02:36:28;8.48;;;7.20;;
6638;SDS011;3355;52.882;8.430;2024-02-26T02:39:14;9.27;;;8.17;;
6638;SDS011;3355;52.882;8.430;2024-02-26T02:41:43;8.00;;;7.03;;
6638;SDS011;3355;52.882;8.430;2024-02-26T02:44:16;10.00;;;7.50;;
6638;SDS011;3355;52.882;8.430;2024-02-26T02:46:46;9.50;;;8.45;;
6638;SDS011;3355;52.882;8.430;2024-02-26T02:49:17;8.00;;;7.20;;
6638;SDS011;3355;52.882;8.430;2024-02-26T02:51:46;8.30;;;7.40;;
6638;SDS011;3355;52.882;8.430;2024-02-26T02:57:49;8.15;;;6.75;;
6638;SDS011;3355;52.882;8.430;2024-02-26T03:00:29;8.33;;;7.00;;
6638;SDS011;3355;52.882;8.430;2024-02-26T03:03:05;9.00;;;8.10;;
6638;SDS011;3355;52.882;8.430;2024-02-26T03:05:44;8.40;;;7.60;;
6638;SDS011;3355;52.882;8.430;2024-02-26T03:08:18;8.00;;;7.20;;
6638;SDS011;3355;52.882;8.430;2024-02-26T03:11:01;9.50;;;7.60;;
6638;SDS011;3355;52.882;8.430;2024-02-26T03:13:54;8.25;;;7.40;;
6638;SDS011;3355;52.882;8.430;2024-02-26T03:16:40;8.10;;;7.07;;
6638;SDS011;3355;52.882;8.430;2024-02-26T03:19:21;7.90;;;7.10;;
6638;SDS011;3355;52.882;8.430;2024-02-26T03:21:56;9.03;;;6.90;;
6638;SDS011;3355;52.882;8.430;2024-02-26T03:24:43;8.23;;;7.00;;
6638;SDS011;3355;52.882;8.430;2024-02-26T03:27:12;8.13;;;7.27;;
6638;SDS011;3355;52.882;8.430;2024-02-26T03:30:00;11.33;;;9.23;;
6638;SDS011;3355;52.882;8.430;2024-02-26T03:32:37;9.23;;;7.38;;
6638;SDS011;3355;52.882;8.430;2024-02-26T03:35:16;9.20;;;8.17;;
6638;SDS011;3355;52.882;8.430;2024-02-26T03:37:47;10.40;;;8.47;;
6638;SDS011;3355;52.882;8.430;2024-02-26T03:40:17;8.30;;;7.17;;
6638;SDS011;3355;52.882;8.430;2024-02-26T03:42:44;10.27;;;8.47;;
6638;SDS011;3355;52.882;8.430;2024-02-26T03:45:13;9.40;;;8.37;;
6638;SDS011;3355;52.882;8.430;2024-02-26T03:47:40;8.70;;;7.80;;
6638;SDS011;3355;52.882;8.430;2024-02-26T03:50:07;9.40;;;7.80;;
6638;SDS011;3355;52.882;8.430;2024-02-26T03:52:35;11.67;;;8.37;;
6638;SDS011;3355;52.882;8.430;2024-02-26T03:55:01;11.50;;;7.67;;
6638;SDS011;3355;52.882;8.430;2024-02-26T03:57:29;10.77;;;8.50;;
6638;SDS011;3355;52.882;8.430;2024-02-26T03:59:56;11.47;;;8.47;;
6638;SDS011;3355;52.882;8.430;2024-02-26T04:02:24;8.40;;;7.13;;
6638;SDS011;3355;52.882;8.430;2024-02-26T04:04:52;10.53;;;8.37;;
6638;SDS011;3355;52.882;8.430;2024-02-26T04:07:19;9.73;;;8.53;;
6638;SDS011;3355;52.882;8.430;2024-02-26T04:09:46;9.43;;;8.37;;
6638;SDS011;3355;52.882;8.430;2024-02-26T04:12:13;9.23;;;7.63;;
6638;SDS011;3355;52.882;8.430;2024-02-26T04:14:41;8.73;;;7.67;;
6638;SDS011;3355;52.882;8.430;2024-02-26T04:17:08;8.50;;;7.60;;
6638;SDS011;3355;52.882;8.430;2024-02-26T04:19:40;9.20;;;7.97;;
6638;SDS011;3355;52.882;8.430;2024-02-26T04:22:07;9.10;;;8.02;;
6638;SDS011;3355;52.882;8.430;2024-02-26T04:24:35;8.93;;;8.03;;
6638;SDS011;3355;52.882;8.430;2024-02-26T04:27:03;7.70;;;6.90;;
6638;SDS011;3355;52.882;8.430;2024-02-26T04:29:32;9.13;;;8.03;;
6638;SDS011;3355;52.882;8.430;2024-02-26T04:31:59;9.27;;;7.57;;
6638;SDS011;3355;52.882;8.430;2024-02-26T04:34:31;9.33;;;8.17;;
6638;SDS011;3355;52.882;8.430;2024-02-26T04:37:05;8.63;;;7.70;;
6638;SDS011;3355;52.882;8.430;2024-02-26T04:39:32;8.40;;;6.90;;
6638;SDS011;3355;52.882;8.430;2024-02-26T04:42:00;8.98;;;7.60;;
6638;SDS011;3355;52.882;8.430;2024-02-26T04:44:30;9.03;;;8.13;;
6638;SDS011;3355;52.882;8.430;2024-02-26T04:47:16;10.03;;;8.93;;
6638;SDS011;3355;52.882;8.430;2024-02-26T04:49:49;9.67;;;7.90;;
6638;SDS011;3355;52.882;8.430;2024-02-26T04:52:22;8.30;;;7.40;;
6638;SDS011;3355;52.882;8.430;2024-02-26T04:54:53;8.40;;;7.00;;
6638;SDS011;3355;52.882;8.430;2024-02-26T04:57:33;9.13;;;8.13;;
6638;SDS011;3355;52.882;8.430;2024-02-26T05:00:08;8.37;;;7.50;;
6638;SDS011;3355;52.882;8.430;2024-02-26T05:02:48;8.77;;;7.70;;
6638;SDS011;3355;52.882;8.430;2024-02-26T05:05:26;10.90;;;8.03;;
6638;SDS011;3355;52.882;8.430;2024-02-26T05:10:42;9.63;;;8.57;;
6638;SDS011;3355;52.882;8.430;2024-02-26T05:13:21;9.55;;;8.27;;
6638;SDS011;3355;52.882;8.430;2024-02-26T05:19:18;9.10;;;7.73;;
6638;SDS011;3355;52.882;8.430;2024-02-26T05:22:04;8.90;;;7.40;;
6638;SDS011;3355;52.882;8.430;2024-02-26T05:27:31;9.50;;;7.87;;
6638;SDS011;3355;52.882;8.430;2024-02-26T05:29:59;10.40;;;8.77;;
6638;SDS011;3355;52.882;8.430;2024-02-26T05:32:31;8.70;;;6.90;;
6638;SDS011;3355;52.882;8.430;2024-02-26T05:35:01;9.17;;;7.63;;
6638;SDS011;3355;52.882;8.430;2024-02-26T05:37:39;8.83;;;7.60;;
6638;SDS011;3355;52.882;8.430;2024-02-26T05:43:15;11.80;;;7.87;;
6638;SDS011;3355;52.882;8.430;2024-02-26T05:45:46;8.67;;;7.07;;
6638;SDS011;3355;52.882;8.430;2024-02-26T05:48:16;9.80;;;7.50;;
6638;SDS011;3355;52.882;8.430;2024-02-26T05:50:56;8.30;;;6.83;;
6638;SDS011;3355;52.882;8.430;2024-02-26T05:53:33;9.10;;;6.60;;
6638;SDS011;3355;52.882;8.430;2024-02-26T05:56:20;8.77;;;7.00;;
6638;SDS011;3355;52.882;8.430;2024-02-26T05:58:54;8.83;;;7.33;;
6638;SDS011;3355;52.882;8.430;2024-02-26T06:01:23;9.77;;;7.30;;
6638;SDS011;3355;52.882;8.430;2024-02-26T06:03:56;8.90;;;7.63;;
6638;SDS011;3355;52.882;8.430;2024-02-26T06:06:39;7.77;;;6.53;;
6638;SDS011;3355;52.882;8.430;2024-02-26T06:09:18;8.90;;;7.10;;
6638;SDS011;3355;52.882;8.430;2024-02-26T06:12:19;9.25;;;7.22;;
6638;SDS011;3355;52.882;8.430;2024-02-26T06:15:00;9.30;;;7.60;;
6638;SDS011;3355;52.882;8.430;2024-02-26T06:17:30;8.30;;;6.87;;
6638;SDS011;3355;52.882;8.430;2024-02-26T06:20:00;9.97;;;7.60;;
6638;SDS011;3355;52.882;8.430;2024-02-26T06:22:31;8.83;;;7.83;;
6638;SDS011;3355;52.882;8.430;2024-02-26T06:25:02;10.40;;;7.47;;
6638;SDS011;3355;52.882;8.430;2024-02-26T06:27:30;10.20;;;8.00;;
6638;SDS011;3355;52.882;8.430;2024-02-26T06:30:04;11.20;;;8.23;;
6638;SDS011;3355;52.882;8.430;2024-02-26T06:32:36;11.17;;;7.87;;
6638;SDS011;3355;52.882;8.430;2024-02-26T06:35:06;10.13;;;8.60;;
6638;SDS011;3355;52.882;8.430;2024-02-26T06:37:48;11.57;;;7.97;;
6638;SDS011;3355;52.882;8.430;2024-02-26T06:40:19;11.83;;;8.40;;
6638;SDS011;3355;52.882;8.430;2024-02-26T06:49:08;10.98;;;8.50;;
6638;SDS011;3355;52.882;8.430;2024-02-26T06:51:46;11.00;;;7.83;;
6638;SDS011;3355;52.882;8.430;2024-02-26T06:54:31;9.97;;;7.43;;
6638;SDS011;3355;52.882;8.430;2024-02-26T06:57:17;9.00;;;7.47;;
6638;SDS011;3355;52.882;8.430;2024-02-26T07:00:02;10.13;;;8.17;;
6638;SDS011;3355;52.882;8.430;2024-02-26T07:02:43;10.07;;;8.68;;
6638;SDS011;3355;52.882;8.430;2024-02-26T07:05:23;12.40;;;7.80;;
6638;SDS011;3355;52.882;8.430;2024-02-26T07:07:58;12.38;;;9.45;;
6638;SDS011;3355;52.882;8.430;2024-02-26T07:10:34;15.23;;;10.20;;
6638;SDS011;3355;52.882;8.430;2024-02-26T07:13:19;11.60;;;9.40;;
6638;SDS011;3355;52.882;8.430;2024-02-26T07:15:52;13.67;;;10.53;;
6638;SDS011;3355;52.882;8.430;2024-02-26T07:18:22;13.33;;;10.93;;
6638;SDS011;3355;52.882;8.430;2024-02-26T07:20:56;14.33;;;11.40;;
6638;SDS011;3355;52.882;8.430;2024-02-26T07:23:29;16.47;;;11.70;;
6638;SDS011;3355;52.882;8.430;2024-02-26T07:26:12;15.50;;;11.07;;
6638;SDS011;3355;52.882;8.430;2024-02-26T07:28:48;16.50;;;11.93;;
6638;SDS011;3355;52.882;8.430;2024-02-26T07:31:29;17.57;;;13.07;;
6638;SDS011;3355;52.882;8.430;2024-02-26T07:34:03;19.63;;;12.70;;
6638;SDS011;3355;52.882;8.430;2024-02-26T07:40:09;16.00;;;12.43;;
6638;SDS011;3355;52.882;8.430;2024-02-26T07:42:46;16.37;;;12.70;;
6638;SDS011;3355;52.882;8.430;2024-02-26T07:45:16;18.70;;;13.27;;
6638;SDS011;3355;52.882;8.430;2024-02-26T07:47:53;16.90;;;13.43;;
6638;SDS011;3355;52.882;8.430;2024-02-26T07:50:30;19.80;;;13.13;;
6638;SDS011;3355;52.882;8.430;2024-02-26T07:53:00;16.93;;;11.63;;
6638;SDS011;3355;52.882;8.430;2024-02-26T07:55:28;18.97;;;13.37;;
6638;SDS011;3355;52.882;8.430;2024-02-26T07:57:57;18.08;;;12.60;;
6638;SDS011;3355;52.882;8.430;2024-02-26T08:00:32;19.60;;;13.70;;
6638;SDS011;3355;52.882;8.430;2024-02-26T08:03:05;19.13;;;14.27;;
6638;SDS011;3355;52.882;8.430;2024-02-26T08:05:37;16.83;;;13.50;;
6638;SDS011;3355;52.882;8.430;2024-02-26T08:08:08;22.07;;;12.73;;
6638;SDS011;3355;52.882;8.430;2024-02-26T08:10:35;17.10;;;12.50;;
6638;SDS011;3355;52.882;8.430;2024-02-26T08:13:10;19.47;;;11.87;;
6638;SDS011;3355;52.882;8.430;2024-02-26T08:15:52;15.73;;;12.30;;
6638;SDS011;3355;52.882;8.430;2024-02-26T08:18:21;18.23;;;12.67;;
6638;SDS011;3355;52.882;8.430;2024-02-26T08:20:52;16.07;;;11.90;;
6638;SDS011;3355;52.882;8.430;2024-02-26T08:23:29;17.50;;;12.00;;
6638;SDS011;3355;52.882;8.430;2024-02-26T08:25:56;19.27;;;14.17;;
6638;SDS011;3355;52.882;8.430;2024-02-26T08:28:43;19.20;;;12.43;;
6638;SDS011;3355;52.882;8.430;2024-02-26T08:31:44;16.77;;;11.80;;
6638;SDS011;3355;52.882;8.430;2024-02-26T08:34:26;16.87;;;11.67;;
6638;SDS011;3355;52.882;8.430;2024-02-26T08:37:10;15.70;;;12.32;;
6638;SDS011;3355;52.882;8.430;2024-02-26T08:46:29;19.97;;;12.80;;
6638;SDS011;3355;52.882;8.430;2024-02-26T08:49:35;16.93;;;11.73;;
6638;SDS011;3355;52.882;8.430;2024-02-26T08:52:27;16.50;;;11.63;;
6638;SDS011;3355;52.882;8.430;2024-02-26T08:55:43;16.27;;;12.00;;
6638;SDS011;3355;52.882;8.430;2024-02-26T08:58:29;17.83;;;12.70;;
6638;SDS011;3355;52.882;8.430;2024-02-26T09:01:10;16.40;;;12.60;;
6638;SDS011;3355;52.882;8.430;2024-02-26T09:03:38;18.50;;;13.90;;
6638;SDS011;3355;52.882;8.430;2024-02-26T09:06:17;14.80;;;11.80;;
6638;SDS011;3355;52.882;8.430;2024-02-26T09:09:06;15.00;;;11.90;;
6638;SDS011;3355;52.882;8.430;2024-02-26T09:11:38;14.10;;;10.17;;
6638;SDS011;3355;52.882;8.430;2024-02-26T09:14:05;12.93;;;10.10;;
6638;SDS011;3355;52.882;8.430;2024-02-26T09:16:34;17.10;;;11.77;;
6638;SDS011;3355;52.882;8.430;2024-02-26T09:19:04;16.47;;;12.07;;
6638;SDS011;3355;52.882;8.430;2024-02-26T09:21:31;16.63;;;11.30;;
6638;SDS011;3355;52.882;8.430;2024-02-26T09:23:59;12.27;;;9.93;;
6638;SDS011;3355;52.882;8.430;2024-02-26T09:26:26;16.70;;;11.37;;
6638;SDS011;3355;52.882;8.430;2024-02-26T09:29:02;17.63;;;11.07;;
6638;SDS011;3355;52.882;8.430;2024-02-26T09:31:31;14.95;;;10.15;;
6638;SDS011;3355;52.882;8.430;2024-02-26T09:34:01;13.83;;;10.07;;
6638;SDS011;3355;52.882;8.430;2024-02-26T09:36:35;14.30;;;10.80;;
6638;SDS011;3355;52.882;8.430;2024-02-26T09:39:12;14.82;;;10.80;;
6638;SDS011;3355;52.882;8.430;2024-02-26T09:41:46;14.93;;;10.23;;
6638;SDS011;3355;52.882;8.430;2024-02-26T09:44:20;15.30;;;11.00;;
6638;SDS011;3355;52.882;8.430;2024-02-26T09:46:55;14.47;;;10.00;;
6638;SDS011;3355;52.882;8.430;2024-02-26T09:49:27;11.47;;;9.33;;
6638;SDS011;3355;52.882;8.430;2024-02-26T09:51:55;13.50;;;9.80;;
6638;SDS011;3355;52.882;8.430;2024-02-26T09:54:23;12.77;;;10.17;;
6638;SDS011;3355;52.882;8.430;2024-02-26T09:56:54;14.13;;;10.73;;
6638;SDS011;3355;52.882;8.430;2024-02-26T09:59:26;11.80;;;9.60;;
6638;SDS011;3355;52.882;8.430;2024-02-26T10:01:55;11.60;;;9.30;;
6638;SDS011;3355;52.882;8.430;2024-02-26T10:04:38;13.90;;;10.47;;
6638;SDS011;3355;52.882;8.430;2024-02-26T10:07:12;14.60;;;9.77;;
6638;SDS011;3355;52.882;8.430;2024-02-26T10:09:40;14.20;;;9.93;;
6638;SDS011;3355;52.882;8.430;2024-02-26T10:12:10;12.93;;;9.23;;
6638;SDS011;3355;52.882;8.430;2024-02-26T10:14:38;11.80;;;9.30;;
6638;SDS011;3355;52.882;8.430;2024-02-26T10:17:05;11.23;;;8.60;;
6638;SDS011;3355;52.882;8.430;2024-02-26T10:19:42;13.20;;;9.37;;
6638;SDS011;3355;52.882;8.430;2024-02-26T10:22:15;12.38;;;9.40;;
6638;SDS011;3355;52.882;8.430;2024-02-26T10:25:52;10.83;;;8.20;;
6638;SDS011;3355;52.882;8.430;2024-02-26T10:28:22;11.90;;;8.70;;
6638;SDS011;3355;52.882;8.430;2024-02-26T10:30:49;11.70;;;9.70;;
6638;SDS011;3355;52.882;8.430;2024-02-26T10:33:17;12.40;;;8.63;;
6638;SDS011;3355;52.882;8.430;2024-02-26T10:35:46;10.90;;;8.30;;
6638;SDS011;3355;52.882;8.430;2024-02-26T10:38:13;10.37;;;7.80;;
6638;SDS011;3355;52.882;8.430;2024-02-26T10:40:45;9.27;;;6.40;;
6638;SDS011;3355;52.882;8.430;2024-02-26T10:43:12;9.90;;;8.17;;
6638;SDS011;3355;52.882;8.430;2024-02-26T10:45:39;11.37;;;8.43;;
6638;SDS011;3355;52.882;8.430;2024-02-26T10:48:09;11.23;;;7.63;;
6638;SDS011;3355;52.882;8.430;2024-02-26T10:50:36;11.40;;;8.70;;
6638;SDS011;3355;52.882;8.430;2024-02-26T10:53:05;11.23;;;9.27;;
6638;SDS011;3355;52.882;8.430;2024-02-26T10:55:36;10.63;;;7.97;;
6638;SDS011;3355;52.882;8.430;2024-02-26T10:58:04;9.70;;;7.07;;
6638;SDS011;3355;52.882;8.430;2024-02-26T11:00:30;10.63;;;8.00;;
6638;SDS011;3355;52.882;8.430;2024-02-26T11:02:57;8.90;;;8.00;;
6638;SDS011;3355;52.882;8.430;2024-02-26T11:05:29;9.07;;;7.50;;
6638;SDS011;3355;52.882;8.430;2024-02-26T11:07:58;11.40;;;7.60;;
6638;SDS011;3355;52.882;8.430;2024-02-26T11:10:28;9.30;;;7.20;;
6638;SDS011;3355;52.882;8.430;2024-02-26T11:12:59;8.43;;;6.77;;
6638;SDS011;3355;52.882;8.430;2024-02-26T11:15:26;9.33;;;7.40;;
6638;SDS011;3355;52.882;8.430;2024-02-26T11:17:54;8.80;;;7.57;;
6638;SDS011;3355;52.882;8.430;2024-02-26T11:20:22;9.30;;;7.20;;
6638;SDS011;3355;52.882;8.430;2024-02-26T11:22:49;7.40;;;6.23;;
6638;SDS011;3355;52.882;8.430;2024-02-26T11:25:15;9.90;;;6.47;;
6638;SDS011;3355;52.882;8.430;2024-02-26T11:27:44;10.10;;;7.60;;
6638;SDS011;3355;52.882;8.430;2024-02-26T11:30:14;10.67;;;7.50;;
6638;SDS011;3355;52.882;8.430;2024-02-26T11:32:43;9.43;;;6.67;;
6638;SDS011;3355;52.882;8.430;2024-02-26T11:35:24;8.47;;;6.80;;
6638;SDS011;3355;52.882;8.430;2024-02-26T11:37:53;9.63;;;6.80;;
6638;SDS011;3355;52.882;8.430;2024-02-26T11:40:26;9.20;;;7.20;;
6638;SDS011;3355;52.882;8.430;2024-02-26T11:42:54;10.20;;;7.20;;
6638;SDS011;3355;52.882;8.430;2024-02-26T11:48:19;9.43;;;6.60;;
6638;SDS011;3355;52.882;8.430;2024-02-26T11:50:47;8.37;;;6.80;;
6638;SDS011;3355;52.882;8.430;2024-02-26T11:53:22;7.70;;;6.90;;
6638;SDS011;3355;52.882;8.430;2024-02-26T11:58:56;7.13;;;5.77;;
6638;SDS011;3355;52.882;8.430;2024-02-26T12:01:39;8.93;;;6.50;;
6638;SDS011;3355;52.882;8.430;2024-02-26T12:04:13;9.70;;;7.25;;
6638;SDS011;3355;52.882;8.430;2024-02-26T12:06:42;9.40;;;7.13;;
6638;SDS011;3355;52.882;8.430;2024-02-26T12:09:10;7.40;;;5.83;;
6638;SDS011;3355;52.882;8.430;2024-02-26T12:11:38;7.63;;;6.50;;
6638;SDS011;3355;52.882;8.430;2024-02-26T12:14:07;6.97;;;6.18;;
6638;SDS011;3355;52.882;8.430;2024-02-26T12:16:38;9.37;;;6.33;;
6638;SDS011;3355;52.882;8.430;2024-02-26T12:19:05;8.75;;;7.28;;
6638;SDS011;3355;52.882;8.430;2024-02-26T12:21:33;7.72;;;6.28;;
6638;SDS011;3355;52.882;8.430;2024-02-26T12:24:09;9.98;;;6.85;;
6638;SDS011;3355;52.882;8.430;2024-02-26T12:26:46;6.50;;;5.80;;
6638;SDS011;3355;52.882;8.430;2024-02-26T12:29:13;9.40;;;6.53;;
6638;SDS011;3355;52.882;8.430;2024-02-26T12:31:40;8.90;;;8.00;;
6638;SDS011;3355;52.882;8.430;2024-02-26T12:34:07;8.32;;;6.88;;
6638;SDS011;3355;52.882;8.430;2024-02-26T12:36:35;7.30;;;5.67;;
6638;SDS011;3355;52.882;8.430;2024-02-26T12:39:03;9.03;;;7.03;;
6638;SDS011;3355;52.882;8.430;2024-02-26T12:41:31;9.43;;;7.00;;
6638;SDS011;3355;52.882;8.430;2024-02-26T12:43:58;7.57;;;6.40;;
6638;SDS011;3355;52.882;8.430;2024-02-26T12:46:26;8.45;;;6.45;;
6638;SDS011;3355;52.882;8.430;2024-02-26T12:48:54;8.43;;;6.43;;
6638;SDS011;3355;52.882;8.430;2024-02-26T12:51:23;9.07;;;6.45;;
6638;SDS011;3355;52.882;8.430;2024-02-26T12:53:50;8.53;;;6.60;;
6638;SDS011;3355;52.882;8.430;2024-02-26T12:56:18;8.80;;;7.03;;
6638;SDS011;3355;52.882;8.430;2024-02-26T12:58:44;7.72;;;6.22;;
6638;SDS011;3355;52.882;8.430;2024-02-26T13:01:15;6.87;;;6.13;;
6638;SDS011;3355;52.882;8.430;2024-02-26T13:03:47;10.73;;;6.30;;
6638;SDS011;3355;52.882;8.430;2024-02-26T13:06:17;9.30;;;6.23;;
6638;SDS011;3355;52.882;8.430;2024-02-26T13:08:44;8.80;;;6.67;;
6638;SDS011;3355;52.882;8.430;2024-02-26T13:11:11;9.83;;;6.30;;
6638;SDS011;3355;52.882;8.430;2024-02-26T13:13:38;7.80;;;6.23;;
6638;SDS011;3355;52.882;8.430;2024-02-26T13:16:05;6.30;;;5.60;;
6638;SDS011;3355;52.882;8.430;2024-02-26T13:18:33;7.60;;;5.93;;
6638;SDS011;3355;52.882;8.430;2024-02-26T13:21:09;8.23;;;6.33;;
6638;SDS011;3355;52.882;8.430;2024-02-26T13:23:37;7.80;;;6.70;;
6638;SDS011;3355;52.882;8.430;2024-02-26T13:26:04;7.73;;;6.10;;
6638;SDS011;3355;52.882;8.430;2024-02-26T13:28:38;11.73;;;7.00;;
6638;SDS011;3355;52.882;8.430;2024-02-26T13:31:11;8.83;;;6.30;;
6638;SDS011;3355;52.882;8.430;2024-02-26T13:33:38;7.70;;;5.80;;
6638;SDS011;3355;52.882;8.430;2024-02-26T13:36:05;9.05;;;5.85;;
6638;SDS011;3355;52.882;8.430;2024-02-26T13:38:41;8.37;;;7.00;;
6638;SDS011;3355;52.882;8.430;2024-02-26T13:41:23;7.90;;;5.50;;
6638;SDS011;3355;52.882;8.430;2024-02-26T13:43:50;7.93;;;5.90;;
6638;SDS011;3355;52.882;8.430;2024-02-26T13:46:17;7.20;;;5.90;;
6638;SDS011;3355;52.882;8.430;2024-02-26T13:48:46;8.10;;;6.07;;
6638;SDS011;3355;52.882;8.430;2024-02-26T13:51:13;8.57;;;6.00;;
6638;SDS011;3355;52.882;8.430;2024-02-26T13:53:43;7.40;;;5.60;;
6638;SDS011;3355;52.882;8.430;2024-02-26T13:56:10;5.93;;;4.80;;
6638;SDS011;3355;52.882;8.430;2024-02-26T13:58:37;7.30;;;6.30;;
6638;SDS011;3355;52.882;8.430;2024-02-26T14:01:03;7.00;;;4.83;;
6638;SDS011;3355;52.882;8.430;2024-02-26T14:03:30;8.27;;;6.00;;
6638;SDS011;3355;52.882;8.430;2024-02-26T14:05:57;7.57;;;6.70;;
6638;SDS011;3355;52.882;8.430;2024-02-26T14:08:33;8.48;;;5.70;;
6638;SDS011;3355;52.882;8.430;2024-02-26T14:11:01;6.67;;;5.30;;
6638;SDS011;3355;52.882;8.430;2024-02-26T14:13:54;6.38;;;5.55;;
6638;SDS011;3355;52.882;8.430;2024-02-26T14:16:21;8.65;;;5.93;;
6638;SDS011;3355;52.882;8.430;2024-02-26T14:18:51;8.30;;;5.50;;
6638;SDS011;3355;52.882;8.430;2024-02-26T14:21:24;8.07;;;5.57;;
6638;SDS011;3355;52.882;8.430;2024-02-26T14:23:52;7.10;;;5.20;;
6638;SDS011;3355;52.882;8.430;2024-02-26T14:26:20;6.87;;;5.27;;
6638;SDS011;3355;52.882;8.430;2024-02-26T14:28:47;7.13;;;6.10;;
6638;SDS011;3355;52.882;8.430;2024-02-26T14:31:16;6.20;;;5.60;;
6638;SDS011;3355;52.882;8.430;2024-02-26T14:33:43;5.75;;;5.05;;
6638;SDS011;3355;52.882;8.430;2024-02-26T14:36:10;8.25;;;4.95;;
6638;SDS011;3355;52.882;8.430;2024-02-26T14:38:37;6.67;;;5.07;;
6638;SDS011;3355;52.882;8.430;2024-02-26T14:41:14;7.67;;;5.57;;
6638;SDS011;3355;52.882;8.430;2024-02-26T14:43:43;5.73;;;5.00;;
6638;SDS011;3355;52.882;8.430;2024-02-26T14:46:09;6.00;;;5.17;;
6638;SDS011;3355;52.882;8.430;2024-02-26T14:48:36;6.10;;;5.00;;
6638;SDS011;3355;52.882;8.430;2024-02-26T14:51:03;6.60;;;4.73;;
6638;SDS011;3355;52.882;8.430;2024-02-26T14:53:31;5.23;;;4.37;;
6638;SDS011;3355;52.882;8.430;2024-02-26T14:55:57;5.30;;;4.63;;
6638;SDS011;3355;52.882;8.430;2024-02-26T14:58:24;5.53;;;4.87;;
6638;SDS011;3355;52.882;8.430;2024-02-26T15:00:52;5.97;;;4.90;;
6638;SDS011;3355;52.882;8.430;2024-02-26T15:03:19;6.60;;;5.47;;
6638;SDS011;3355;52.882;8.430;2024-02-26T15:05:49;6.87;;;5.60;;
6638;SDS011;3355;52.882;8.430;2024-02-26T15:08:15;5.30;;;4.80;;
6638;SDS011;3355;52.882;8.430;2024-02-26T15:10:42;6.67;;;5.17;;
6638;SDS011;3355;52.882;8.430;2024-02-26T15:13:16;7.93;;;5.60;;
6638;SDS011;3355;52.882;8.430;2024-02-26T15:15:43;6.37;;;5.77;;
6638;SDS011;3355;52.882;8.430;2024-02-26T15:18:11;7.72;;;6.10;;
6638;SDS011;3355;52.882;8.430;2024-02-26T15:20:40;7.93;;;5.33;;
6638;SDS011;3355;52.882;8.430;2024-02-26T15:23:07;6.15;;;5.13;;
6638;SDS011;3355;52.882;8.430;2024-02-26T15:25:34;5.90;;;4.80;;
6638;SDS011;3355;52.882;8.430;2024-02-26T15:28:01;5.87;;;4.53;;
6638;SDS011;3355;52.882;8.430;2024-02-26T15:30:27;6.47;;;5.88;;
6638;SDS011;3355;52.882;8.430;2024-02-26T15:32:54;6.80;;;5.20;;
6638;SDS011;3355;52.882;8.430;2024-02-26T15:35:22;7.43;;;5.67;;
6638;SDS011;3355;52.882;8.430;2024-02-26T15:37:49;6.40;;;5.27;;
6638;SDS011;3355;52.882;8.430;2024-02-26T15:40:16;5.75;;;4.97;;
6638;SDS011;3355;52.882;8.430;2024-02-26T15:42:42;6.43;;;5.30;;
6638;SDS011;3355;52.882;8.430;2024-02-26T15:45:09;6.80;;;5.60;;
6638;SDS011;3355;52.882;8.430;2024-02-26T15:47:36;7.03;;;5.60;;
6638;SDS011;3355;52.882;8.430;2024-02-26T15:50:03;7.50;;;5.77;;
6638;SDS011;3355;52.882;8.430;2024-02-26T15:52:31;6.33;;;5.20;;
6638;SDS011;3355;52.882;8.430;2024-02-26T15:54:58;7.97;;;5.77;;
6638;SDS011;3355;52.882;8.430;2024-02-26T15:57:24;8.10;;;5.57;;
6638;SDS011;3355;52.882;8.430;2024-02-26T15:59:51;7.87;;;5.37;;
6638;SDS011;3355;52.882;8.430;2024-02-26T16:02:20;6.43;;;4.83;;
6638;SDS011;3355;52.882;8.430;2024-02-26T16:04:47;7.03;;;5.67;;
6638;SDS011;3355;52.882;8.430;2024-02-26T16:07:16;5.93;;;5.20;;
6638;SDS011;3355;52.882;8.430;2024-02-26T16:09:50;6.40;;;5.43;;
6638;SDS011;3355;52.882;8.430;2024-02-26T16:12:22;5.90;;;5.07;;
6638;SDS011;3355;52.882;8.430;2024-02-26T16:14:51;5.80;;;5.07;;
6638;SDS011;3355;52.882;8.430;2024-02-26T16:17:19;8.77;;;5.33;;
6638;SDS011;3355;52.882;8.430;2024-02-26T16:19:48;6.18;;;5.57;;
6638;SDS011;3355;52.882;8.430;2024-02-26T16:22:16;6.40;;;5.15;;
6638;SDS011;3355;52.882;8.430;2024-02-26T16:24:43;5.97;;;4.93;;
6638;SDS011;3355;52.882;8.430;2024-02-26T16:27:11;6.53;;;5.60;;
6638;SDS011;3355;52.882;8.430;2024-02-26T16:29:39;6.10;;;5.00;;
6638;SDS011;3355;52.882;8.430;2024-02-26T16:32:05;7.10;;;5.23;;
6638;SDS011;3355;52.882;8.430;2024-02-26T16:34:33;6.47;;;5.27;;
6638;SDS011;3355;52.882;8.430;2024-02-26T16:37:08;6.80;;;6.00;;
6638;SDS011;3355;52.882;8.430;2024-02-26T16:39:35;6.20;;;5.40;;
6638;SDS011;3355;52.882;8.430;2024-02-26T16:42:02;6.03;;;5.03;;
6638;SDS011;3355;52.882;8.430;2024-02-26T16:44:30;7.93;;;6.00;;